< < Back
Terminal Aerodrome Forecast


Current Version              Previous Versions:   1  2  3  4  5  6  7  8  9  

Terminal Aerodrome Forecast

313
FTAK31 PAJN 081139
TAFAHN
TAF
PAHN 081139Z 0812/0912 31007KT 6SM -SN BR SCT007 OVC012
      TEMPO 0812/0815 2SM BR BKN007
     FM090000 30009KT 5SM -RA BR SCT015 BKN040 OVC060
     FM090300 30007KT 4SM -RA BR BKN015 OVC030
     FM090800 08009KT 2SM -RA BR SCT005 BKN015 OVC030
      AMD LTD TO CLD VIS AND WIND=

Latest METAR

561
SAUS70 KWBC 081400
MTRAHN
METAR KAHN 081351Z VRB05KT 10SM FEW070 05/M03 A2983 RMK AO2 SLP106
T00501033


USA.gov is the U.S. government's official web portal to all federal, state and local government web resources and services.